VIDP

Indira Gandhi International Airport

New Delhi, India
TAF VIDP 200800Z 2009/2018 10005KT 2000 HZ FEW040 SCT100 BECMG 2012/2015 10005G15KT 1500 HZ BR BECMG 2016/2018 VRB02KT 1200 HZ BR
Issued Valid From Valid To
Jan-20 @ 08:00 UTC
(3 hours ago)
Jan-20 @ 09:00 UTC
(2 hours ago)
Jan-20 @ 18:00 UTC
(in 7 hours)
Jan-20 @ 09:00 to Jan-20 @ 12:00
TAF VIDP 200800Z 2009/2018 10005KT 2000 HZ FEW040 SCT100
Wind Visibility Clouds Conditions
100° at 5 knots 1,996 meters
  • Few at 4,000' AGL
  • Scattered at 10,000' AGL
  • Haze
Becoming Jan-20 @ 12:00 to Jan-20 @ 16:00
BECMG 2012/2015 10005G15KT 1500 HZ BR
Wind Visibility Clouds Conditions
100° at 5 knots
 Gusting to 15 knots
1,497 meters
  • Few at 4,000' AGL
  • Scattered at 10,000' AGL
  • Haze
  • Mist
Becoming Jan-20 @ 16:00 to Jan-20 @ 18:00
BECMG 2016/2018 VRB02KT 1200 HZ BR
Wind Visibility Clouds Conditions
Variable at 2 knots 1,207 meters
  • Few at 4,000' AGL
  • Scattered at 10,000' AGL
  • Haze
  • Mist
TAF VIDP 200800Z 2009/2018 10005KT 2000 HZ FEW040 SCT100 BECMG 2012/2015 10005G15KT 1500 HZ BR BECMG 2016/2018 VRB02KT 1200 HZ BR
Issued Jan-20 @ 08:00 UTC
(3 hours ago)
Valid From Jan-20 @ 09:00 UTC
(2 hours ago)
Valid To Jan-20 @ 18:00 UTC
(in 7 hours)
Jan-20 @ 09:00 - Jan-20 @ 12:00
Wind Visibility
100° at 5 knots 1,996 meters
Clouds
  • Few at 4,000' AGL
  • Scattered at 10,000' AGL
Conditions
  • Haze
Becoming Jan-20 @ 12:00 - Jan-20 @ 16:00
Wind Visibility
100° at 5 knots
 Gusting to 15 knots
1,497 meters
Clouds
  • Few at 4,000' AGL
  • Scattered at 10,000' AGL
Conditions
  • Haze
  • Mist
Becoming Jan-20 @ 16:00 - Jan-20 @ 18:00
Wind Visibility
Variable at 2 knots 1,207 meters
Clouds
  • Few at 4,000' AGL
  • Scattered at 10,000' AGL
Conditions
  • Haze
  • Mist